Brampton, North Dakota
Current Conditions -  °F | °C
As of 1:35 PM on Thursday 27 Nov 2014 (Local Time) from KGWR Reporting Station
Clear Clear  
Wind Chill: -8°   Ceiling: Unl
Heat Index:   Visibility: 10mi
Dew Point: -6°   Wind: 8mph
Humidity: 61%   Direction: 140°SE
Pressure: 30.32"   Gusts: NA
Location:  46.0772°N, 97.8609°W
Report Text: KGWR 271935Z AUTO 14007KT 10SM CLR M15/M21 A3032 RMK A01 P000
Loading
Personal Weather Stations






























Interactive Weather Map New forecast layout! Learn more

10-Day Weather Forecast

Advertisements
Track Severe Weather on mobile